Time;durP1;ratioP1;P1;durP2;ratioP2;P2;SDS_P1;SDS_P2;PMS_P1;PMS_P2;Temp;Humidity;BMP_temperature;BMP_pressure;BME280_temperature;BME280_humidity;BME280_pressure;Samples;Min_cycle;Max_cycle;Signal;HPM_P1;HPM_P2
2022/09/21 15:17:34;;;;;;;1.30;1.20;;;;;;;21.43;37.51;100390.56;564430;22;21809;31
2022/09/21 15:19:43;;;;;;;1.40;1.17;;;;;;;20.71;37.83;100490.53;4135979;28;20228;-73
2022/09/21 15:21:51;;;;;;;1.87;1.60;;;;;;;21.85;37.07;100323.28;4139645;28;21046;-74
2022/09/21 15:23:53;;;;;;;3.83;1.87;;;;;;;21.32;37.18;100422.63;4143121;28;20212;-73
2022/09/21 15:26:06;;;;;;;3.43;1.50;;;;;;;21.52;36.78;100403.59;4142200;28;20213;-73
2022/09/21 15:28:10;;;;;;;2.73;1.30;;;;;;;21.52;37.22;100413.59;4155191;28;20692;-74
2022/09/21 15:30:21;;;;;;;1.80;1.20;;;;;;;21.81;37.24;100385.16;4155187;28;20292;-74
2022/09/21 15:32:41;;;;;;;1.70;1.60;;;;;;;21.75;37.44;100374.38;4182208;22;20232;-31
2022/09/21 15:34:43;;;;;;;1.93;1.60;;;;;;;21.49;37.77;100416.75;4161951;28;20270;-31
2022/09/21 15:36:47;;;;;;;1.83;1.53;;;;;;;21.18;37.76;100432.66;4136115;28;20749;-31
2022/09/21 15:38:58;;;;;;;1.57;1.47;;;;;;;21.82;37.45;100350.81;4141085;28;20252;-31
2022/09/21 15:41:00;;;;;;;2.60;1.40;;;;;;;21.95;37.09;100341.75;4150996;28;20235;-31
2022/09/21 15:43:17;;;;;;;1.80;1.50;;;;;;;21.68;37.00;100377.13;4161596;28;20735;-31
2022/09/21 15:45:57;;;;;;;1.50;1.40;;;;;;;21.64;37.13;100395.66;4158336;28;20270;-46
2022/09/21 15:48:00;;;;;;;3.20;1.90;;;;;;;21.38;36.75;100448.00;4153254;28;20326;-32
2022/09/21 15:50:02;;;;;;;2.30;1.87;;;;;;;21.59;36.44;100402.75;4160036;28;20260;-33
2022/09/21 15:52:33;;;;;;;1.50;1.40;;;;;;;21.84;36.56;100386.59;4163477;28;20304;-31
2022/09/21 15:54:36;;;;;;;2.20;1.53;;;;;;;21.31;37.07;100431.81;4164278;28;20256;-33
2022/09/21 15:56:43;;;;;;;2.13;1.70;;;;;;;21.47;37.29;100392.59;4167056;28;20320;-34
2022/09/21 15:59:07;;;;;;;2.87;1.47;;;;;;;21.40;37.55;100399.94;4169370;28;20663;-31
2022/09/21 16:01:22;;;;;;;1.40;1.30;;;;;;;21.35;36.91;100413.28;4166096;28;20267;-32
2022/09/21 16:03:24;;;;;;;1.30;1.20;;;;;;;21.57;36.75;100392.16;4161849;28;20654;-31
2022/09/21 16:05:47;;;;;;;1.63;1.47;;;;;;;22.09;36.67;100333.31;4168694;28;20224;-34
2022/09/21 16:08:03;;;;;;;1.53;1.43;;;;;;;22.14;36.42;100342.66;4166733;28;20771;-31
2022/09/21 16:10:35;;;;;;;2.60;1.50;;;;;;;21.46;37.87;100390.13;4167229;28;20708;-32
2022/09/21 16:12:43;;;;;;;1.63;1.50;;;;;;;21.23;37.29;100431.22;4164446;28;20318;-32
2022/09/21 16:14:52;;;;;;;2.47;1.70;;;;;;;21.05;37.60;100402.97;4153777;28;20236;-37
2022/09/21 16:17:15;;;;;;;1.60;1.40;;;;;;;21.75;36.58;100325.66;4146013;28;20256;-36
2022/09/21 16:19:38;;;;;;;2.90;1.80;;;;;;;21.68;36.21;100377.97;4147387;28;20344;-34
2022/09/21 16:21:40;;;;;;;2.37;1.50;;;;;;;21.13;36.76;100443.28;4153759;28;20263;-31
2022/09/21 16:23:42;;;;;;;2.57;1.27;;;;;;;21.86;35.62;100362.84;4148102;28;20268;-34
2022/09/21 16:25:59;;;;;;;3.40;1.83;;;;;;;21.20;36.42;100467.63;4157935;28;20870;-32
2022/09/21 16:28:08;;;;;;;1.60;1.40;;;;;;;21.53;36.59;100407.16;4152380;28;20228;-33
2022/09/21 16:30:39;;;;;;;1.20;1.10;;;;;;;21.94;35.74;100370.72;4159285;28;20315;-33
2022/09/21 16:32:47;;;;;;;3.23;1.20;;;;;;;21.77;36.21;100410.19;4153383;28;20275;-33
2022/09/21 16:34:53;;;;;;;2.83;1.40;;;;;;;21.07;37.34;100478.47;4154392;28;20271;-33
2022/09/21 16:36:56;;;;;;;1.70;1.60;;;;;;;21.70;36.68;100402.09;4154812;28;20264;-34
2022/09/21 16:39:09;;;;;;;2.13;1.70;;;;;;;21.51;36.68;100395.69;4154721;28;20262;-34
2022/09/21 16:41:16;;;;;;;1.13;1.10;;;;;;;21.42;36.43;100397.00;4155439;28;20252;-32
2022/09/21 16:43:19;;;;;;;2.43;1.20;;;;;;;21.41;36.42;100425.94;4157064;28;20272;-32
2022/09/21 16:45:31;;;;;;;1.77;1.20;;;;;;;22.06;35.85;100355.41;4134650;28;20244;-33
2022/09/21 16:47:36;;;;;;;2.13;1.60;;;;;;;21.10;37.08;100478.03;4155529;28;20316;-33
2022/09/21 16:49:38;;;;;;;1.47;1.37;;;;;;;21.63;36.17;100418.38;4154546;28;20229;-33
2022/09/21 16:51:48;;;;;;;1.30;1.20;;;;;;;21.51;36.66;100452.53;4155592;28;20324;-32
2022/09/21 16:53:50;;;;;;;2.27;1.30;;;;;;;21.91;36.62;100374.66;4155313;28;20315;-32
2022/09/21 16:55:58;;;;;;;1.83;1.07;;;;;;;22.17;36.02;100370.13;4155623;28;20228;-30
2022/09/21 16:58:00;;;;;;;1.47;1.17;;;;;;;21.03;37.77;100474.53;4152976;28;20621;-34
2022/09/21 17:00:09;;;;;;;2.00;1.23;;;;;;;21.60;37.25;100402.53;4150499;28;20276;-32
2022/09/21 17:02:17;;;;;;;1.50;1.40;;;;;;;21.12;38.05;100457.88;4155329;28;20272;-30
2022/09/21 17:04:21;;;;;;;2.47;1.33;;;;;;;20.76;38.78;100482.63;4154002;28;20232;-34
2022/09/21 17:06:23;;;;;;;1.93;1.30;;;;;;;20.56;38.68;100467.25;4153213;28;20681;-31
2022/09/21 17:08:31;;;;;;;3.07;1.40;;;;;;;21.35;37.59;100407.84;4153913;28;20755;-31
2022/09/21 17:10:43;;;;;;;2.13;1.80;;;;;;;21.97;36.89;100332.38;4153090;28;20268;-33
2022/09/21 17:12:44;;;;;;;3.23;1.50;;;;;;;21.61;36.96;100397.94;4149407;28;20311;-31
2022/09/21 17:14:53;;;;;;;1.30;1.20;;;;;;;20.79;38.52;100457.91;4152994;28;20255;-31
2022/09/21 17:16:57;;;;;;;1.47;1.30;;;;;;;20.92;38.82;100420.03;4138165;28;20708;-30
2022/09/21 17:18:59;;;;;;;1.30;1.20;;;;;;;20.71;38.63;100423.81;4156004;28;20772;-30
2022/09/21 17:21:08;;;;;;;2.50;1.60;;;;;;;21.43;38.11;100344.56;4155116;28;20781;-32
2022/09/21 17:23:10;;;;;;;1.93;1.60;;;;;;;21.11;38.36;100407.53;4154618;28;20299;-33
2022/09/21 17:25:11;;;;;;;1.80;1.43;;;;;;;21.68;37.16;100339.22;4136039;28;20275;-31
2022/09/21 17:27:24;;;;;;;3.57;1.30;;;;;;;20.53;38.97;100397.41;4155693;28;20708;-31
2022/09/21 17:29:27;;;;;;;1.63;1.40;;;;;;;21.19;37.99;100368.59;4150166;28;20521;-30
2022/09/21 17:31:30;;;;;;;1.50;1.40;;;;;;;20.71;38.58;100417.56;4154778;28;20308;-31
2022/09/21 17:33:39;;;;;;;1.73;1.30;;;;;;;21.10;37.73;100368.00;4155996;28;20757;-33
2022/09/21 17:35:40;;;;;;;1.70;1.47;;;;;;;21.32;37.45;100365.00;4156800;28;20311;-31
2022/09/21 17:37:42;;;;;;;1.70;1.27;;;;;;;21.31;37.79;100380.41;4156072;28;20287;-32
2022/09/21 17:39:50;;;;;;;1.83;1.40;;;;;;;20.89;37.96;100416.94;4154610;28;20662;-31
2022/09/21 17:42:02;;;;;;;1.50;1.30;;;;;;;21.16;38.35;100377.16;4154279;28;20507;-31
2022/09/21 17:44:14;;;;;;;2.23;1.87;;;;;;;20.99;38.66;100401.94;4150909;28;20244;-33
2022/09/21 17:46:45;;;;;;;1.97;1.50;;;;;;;20.85;39.04;100419.19;4154181;28;20232;-34
2022/09/21 17:48:47;;;;;;;2.97;1.60;;;;;;;20.91;38.71;100406.72;4147288;28;20229;-30
2022/09/21 17:50:49;;;;;;;4.03;1.60;;;;;;;20.78;38.60;100437.31;4147241;28;20267;-30
2022/09/21 17:55:19;;;;;;;2.83;1.50;;;;;;;20.23;39.74;100464.50;4152368;28;20259;-34
2022/09/21 17:57:51;;;;;;;1.70;1.60;;;;;;;20.33;39.85;100423.59;4152399;28;20255;-32
2022/09/21 18:00:11;;;;;;;3.70;1.50;;;;;;;20.48;39.30;100404.50;4153550;28;20225;-32
2022/09/21 18:02:24;;;;;;;1.60;1.50;;;;;;;20.93;38.80;100366.78;4155206;28;20258;-30
2022/09/21 18:04:29;;;;;;;2.00;1.83;;;;;;;20.85;38.77;100389.47;4148041;28;20432;-31
2022/09/21 18:06:38;;;;;;;3.10;1.60;;;;;;;20.78;38.67;100386.78;4155164;28;20322;-35
2022/09/21 18:08:40;;;;;;;2.50;1.73;;;;;;;21.02;38.42;100391.75;4149938;28;20669;-35
2022/09/21 18:10:46;;;;;;;2.00;1.40;;;;;;;20.78;38.83;100418.38;4148727;28;20741;-32
2022/09/21 18:13:10;;;;;;;4.07;1.63;;;;;;;20.89;38.71;100398.81;4152825;28;20315;-34
2022/09/21 18:15:17;;;;;;;2.13;1.90;;;;;;;20.17;39.95;100473.41;4135663;28;20265;-35
2022/09/21 18:18:00;;;;;;;2.77;1.37;;;;;;;20.58;39.62;100416.56;4155271;28;20318;-33
2022/09/21 18:20:24;;;;;;;2.90;1.60;;;;;;;20.55;39.62;100426.91;4119700;28;20912;-31
2022/09/21 18:22:47;;;;;;;1.50;1.40;;;;;;;20.63;39.26;100434.81;4151541;28;20315;-31
2022/09/21 18:24:50;;;;;;;1.77;1.50;;;;;;;20.05;40.50;100495.59;4154459;28;20236;-31
2022/09/21 18:26:59;;;;;;;1.97;1.70;;;;;;;20.22;40.53;100409.66;4143870;28;20259;-31
2022/09/21 18:29:03;;;;;;;2.23;1.67;;;;;;;19.49;40.94;100520.06;4155895;28;20561;-30
2022/09/21 18:31:28;;;;;;;1.60;1.50;;;;;;;19.24;41.97;100508.91;4154087;28;20247;-30
2022/09/21 18:34:18;;;;;;;2.93;1.60;;;;;;;19.83;41.28;100402.34;4151759;28;20645;-30
2022/09/21 18:36:28;;;;;;;2.37;1.50;;;;;;;20.39;40.34;100347.16;4132267;28;20236;-32
2022/09/21 18:38:37;;;;;;;2.07;1.60;;;;;;;20.53;39.74;100380.38;4154928;28;20391;-31
2022/09/21 18:41:13;;;;;;;1.70;1.60;;;;;;;20.54;39.98;100373.94;4151731;28;20675;-32
2022/09/21 18:43:27;;;;;;;1.40;1.30;;;;;;;20.19;40.59;100411.94;4153508;28;20327;-31
2022/09/21 18:45:37;;;;;;;3.77;2.13;;;;;;;20.62;39.86;100355.66;4153284;28;20689;-33
2022/09/21 18:47:48;;;;;;;2.20;1.70;;;;;;;20.82;39.14;100343.97;4155406;28;20244;-32
2022/09/21 18:50:02;;;;;;;3.77;1.50;;;;;;;20.37;40.48;100392.47;4151665;28;20252;-30
2022/09/21 18:52:36;;;;;;;4.23;1.70;;;;;;;20.58;39.67;100367.94;4155868;28;20672;-31
2022/09/21 18:54:44;;;;;;;2.37;1.60;;;;;;;19.82;40.84;100470.84;4153430;28;20260;-32
2022/09/21 18:56:47;;;;;;;3.07;1.60;;;;;;;19.84;40.97;100450.72;4151398;28;20260;-31
2022/09/21 18:58:49;;;;;;;2.10;1.57;;;;;;;20.06;40.51;100418.16;4152084;28;20704;-32
2022/09/21 19:00:59;;;;;;;1.67;1.57;;;;;;;20.18;40.55;100408.41;4153999;28;20260;-31
2022/09/21 19:03:04;;;;;;;1.73;1.60;;;;;;;19.73;41.39;100459.38;4153121;28;20260;-31
2022/09/21 19:05:19;;;;;;;2.53;1.70;;;;;;;20.17;40.46;100393.25;4154742;28;20319;-31
2022/09/21 19:07:33;;;;;;;2.23;1.70;;;;;;;20.21;40.36;100401.75;4148398;28;20248;-35
2022/09/21 19:09:51;;;;;;;1.83;1.73;;;;;;;20.36;40.18;100380.81;4150943;28;20251;-34
2022/09/21 19:12:12;;;;;;;2.00;1.90;;;;;;;20.51;40.06;100372.47;4151609;28;20270;-32
2022/09/21 19:15:09;;;;;;;2.40;1.70;;;;;;;20.30;40.21;100402.41;4152957;28;20670;-31
2022/09/21 19:17:40;;;;;;;2.40;1.83;;;;;;;19.70;41.37;100451.69;4103873;28;20987;-30
2022/09/21 19:20:25;;;;;;;2.73;1.70;;;;;;;20.15;40.84;100379.13;4102221;28;20229;-33
2022/09/21 19:22:46;;;;;;;1.97;1.77;;;;;;;19.92;40.62;100411.06;4131459;28;20860;-30
2022/09/21 19:25:03;;;;;;;2.07;1.90;;;;;;;19.80;40.90;100433.25;4154454;28;20228;-34
2022/09/21 19:27:17;;;;;;;5.00;2.00;;;;;;;19.94;40.79;100409.81;4154160;28;20252;-30
2022/09/21 19:29:51;;;;;;;2.30;1.80;;;;;;;19.98;40.44;100421.88;4153995;28;20239;-32
2022/09/21 19:31:53;;;;;;;1.70;1.60;;;;;;;19.97;40.97;100425.59;4135619;28;20808;-35
2022/09/21 19:34:13;;;;;;;2.20;1.70;;;;;;;19.31;41.72;100501.69;4143802;28;20308;-31
2022/09/21 19:36:15;;;;;;;2.97;2.30;;;;;;;19.60;41.48;100435.06;4153602;28;20267;-31
2022/09/21 19:38:17;;;;;;;2.27;1.40;;;;;;;19.97;40.84;100398.63;4149856;28;20216;-31
2022/09/21 19:40:31;;;;;;;1.90;1.80;;;;;;;19.96;40.61;100405.06;4152076;28;20266;-32
2022/09/21 19:42:49;;;;;;;2.10;1.73;;;;;;;19.90;41.04;100410.47;4153351;28;20236;-32
2022/09/21 19:44:56;;;;;;;4.43;1.70;;;;;;;19.86;40.55;100418.97;4150241;28;20244;-32
2022/09/21 19:47:20;;;;;;;3.77;1.93;;;;;;;19.64;41.34;100436.31;4147551;28;20637;-33
2022/09/21 19:49:24;;;;;;;3.27;1.77;;;;;;;20.00;40.03;100406.31;4152059;28;20260;-31
2022/09/21 19:51:37;;;;;;;2.40;2.20;;;;;;;19.81;40.82;100437.63;4154377;28;20259;-33
2022/09/21 20:01:02;;;;;;;3.43;1.90;;;;;;;19.81;40.12;100447.59;4145858;28;20503;-30
2022/09/21 20:03:12;;;;;;;3.00;2.20;;;;;;;20.12;39.96;100406.53;4158771;28;20596;-31
2022/09/21 20:05:28;;;;;;;1.70;1.60;;;;;;;19.87;40.20;100441.38;4155176;28;20736;-30
2022/09/21 20:07:45;;;;;;;1.70;1.60;;;;;;;19.70;40.44;100470.59;4156375;28;20248;-30
2022/09/21 20:10:08;;;;;;;2.13;1.70;;;;;;;19.58;40.71;100477.59;4156380;28;20248;-30
2022/09/21 20:12:24;;;;;;;2.10;1.90;;;;;;;19.43;40.99;100494.69;4155614;28;20256;-30
2022/09/21 20:14:45;;;;;;;2.37;2.03;;;;;;;19.19;41.18;100504.13;4150852;28;20714;-31
2022/09/21 20:16:59;;;;;;;2.97;1.93;;;;;;;19.44;41.10;100476.69;4155802;28;20235;-32
2022/09/21 20:19:13;;;;;;;2.10;1.90;;;;;;;19.35;41.16;100476.00;4157410;28;20228;-31
2022/09/21 20:21:26;;;;;;;3.33;2.27;;;;;;;19.74;40.45;100435.94;4155841;28;20239;-30
2022/09/21 20:23:29;;;;;;;3.77;2.07;;;;;;;19.32;40.79;100488.03;4156436;28;20229;-32
2022/09/21 20:25:35;;;;;;;3.07;2.60;;;;;;;19.15;40.91;100505.56;4157414;28;20225;-34
2022/09/21 20:27:54;;;;;;;2.33;1.93;;;;;;;19.05;41.49;100513.13;4157224;28;20271;-31
2022/09/21 20:30:04;;;;;;;2.27;2.07;;;;;;;19.57;40.51;100443.56;4155672;28;20264;-33
2022/09/21 20:32:07;;;;;;;2.57;2.30;;;;;;;19.37;41.17;100473.94;4153046;28;20511;-33
2022/09/21 20:34:15;;;;;;;2.73;2.20;;;;;;;19.48;40.53;100465.28;4157318;28;20271;-31
2022/09/21 20:36:17;;;;;;;2.83;2.53;;;;;;;19.12;40.96;100503.25;4155370;28;20225;-31
2022/09/21 20:38:19;;;;;;;3.00;1.90;;;;;;;19.54;40.23;100443.91;4134223;28;20672;-30
2022/09/21 20:40:27;;;;;;;2.67;2.43;;;;;;;19.40;40.37;100478.09;4156079;28;20267;-32
2022/09/21 20:42:29;;;;;;;3.10;2.37;;;;;;;19.01;41.02;100512.69;4156465;28;20673;-31
2022/09/21 20:44:31;;;;;;;2.63;2.30;;;;;;;18.96;40.92;100512.44;4156410;28;20252;-31
2022/09/21 20:46:39;;;;;;;3.97;2.40;;;;;;;18.82;40.95;100519.59;4151546;28;20599;-30
2022/09/21 20:48:42;;;;;;;2.67;2.43;;;;;;;19.00;40.95;100494.88;4152320;28;20225;-33
2022/09/21 20:50:47;;;;;;;2.00;1.80;;;;;;;19.26;40.90;100458.31;4151328;28;20268;-32
2022/09/21 20:52:55;;;;;;;2.20;2.00;;;;;;;18.91;41.04;100515.75;4153350;28;20605;-30
2022/09/21 20:54:57;;;;;;;3.07;2.60;;;;;;;18.81;41.54;100509.81;4154190;28;20773;-31
2022/09/21 20:56:59;;;;;;;2.30;2.03;;;;;;;18.86;40.92;100510.09;4156599;28;20256;-30
2022/09/21 20:59:06;;;;;;;2.57;2.00;;;;;;;18.74;41.38;100536.69;4155684;28;20259;-31
2022/09/21 21:01:09;;;;;;;2.10;1.90;;;;;;;18.86;41.29;100518.16;4155778;28;20233;-32
2022/09/21 21:03:14;;;;;;;2.50;1.93;;;;;;;18.66;41.59;100542.25;4156220;28;20233;-31
2022/09/21 21:05:22;;;;;;;4.00;2.10;;;;;;;18.61;41.64;100528.53;4155890;28;20789;-31
2022/09/21 21:07:30;;;;;;;3.30;1.90;;;;;;;19.03;41.53;100453.22;4153115;28;20789;-33
2022/09/21 21:09:32;;;;;;;2.50;2.10;;;;;;;18.72;41.21;100501.03;4155821;28;20252;-33
2022/09/21 21:11:47;;;;;;;3.13;2.40;;;;;;;19.05;41.17;100446.59;4155102;28;20232;-33
2022/09/21 21:13:57;;;;;;;2.10;2.00;;;;;;;18.79;41.45;100487.63;4157604;28;20256;-31
2022/09/21 21:15:59;;;;;;;3.43;2.60;;;;;;;18.95;41.23;100449.66;4156684;28;20517;-31
2022/09/21 21:18:00;;;;;;;2.73;2.20;;;;;;;19.03;41.01;100461.28;4155743;28;20264;-32
2022/09/21 21:20:09;;;;;;;2.63;2.30;;;;;;;18.94;41.21;100460.63;4155351;28;20270;-32
2022/09/21 21:22:17;;;;;;;2.83;2.07;;;;;;;18.53;41.65;100478.31;4154844;28;20244;-31
2022/09/21 21:25:02;;;;;;;2.73;2.20;;;;;;;18.72;41.60;100454.41;4156111;28;20753;-30
2022/09/21 21:26:44;;;;;;;3.87;2.33;;;;;;;18.58;41.67;100475.88;4137989;28;20598;-31
2022/09/21 21:29:03;;;;;;;2.27;2.07;;;;;;;18.42;41.95;100500.34;4154669;28;20252;-35
2022/09/21 21:31:05;;;;;;;3.37;2.23;;;;;;;18.25;42.28;100518.63;4154781;28;20267;-32
2022/09/21 21:33:06;;;;;;;3.93;2.57;;;;;;;18.55;41.66;100468.16;4155322;28;20236;-34
2022/09/21 21:35:14;;;;;;;3.00;2.30;;;;;;;18.78;41.29;100440.19;4154615;28;20282;-32
2022/09/21 21:37:18;;;;;;;2.83;2.30;;;;;;;18.65;41.92;100458.94;4155472;28;20256;-31
2022/09/21 21:39:19;;;;;;;3.03;2.30;;;;;;;18.30;42.33;100512.66;4152577;28;20315;-33
2022/09/21 21:41:29;;;;;;;3.90;2.43;;;;;;;18.59;41.74;100463.22;4156322;28;20693;-32
2022/09/21 21:43:33;;;;;;;2.40;2.10;;;;;;;18.67;41.44;100459.56;4155395;28;20256;-30
2022/09/21 21:45:34;;;;;;;2.70;2.20;;;;;;;18.72;41.50;100433.69;4154186;28;20606;-31
2022/09/21 21:47:43;;;;;;;5.20;2.67;;;;;;;18.73;41.63;100443.44;4150858;28;20232;-30
2022/09/21 21:49:44;;;;;;;2.10;2.00;;;;;;;18.42;42.03;100496.84;4149121;28;20239;-31
2022/09/21 21:51:52;;;;;;;3.33;2.50;;;;;;;18.43;42.42;100447.34;4151920;28;20371;-33
2022/09/21 21:53:54;;;;;;;2.70;2.40;;;;;;;17.87;42.92;100510.72;4153632;28;20664;-30
2022/09/21 21:56:11;;;;;;;3.60;2.40;;;;;;;18.10;42.85;100455.94;4151887;28;20228;-31
2022/09/21 21:58:20;;;;;;;4.00;2.70;;;;;;;17.84;42.94;100508.41;4153740;28;20264;-31
2022/09/21 22:00:22;;;;;;;2.90;2.50;;;;;;;17.95;42.57;100493.63;4152692;28;20300;-33
2022/09/21 22:02:23;;;;;;;3.23;2.33;;;;;;;18.33;41.93;100442.28;4151443;28;20503;-31
2022/09/21 22:04:32;;;;;;;5.60;2.40;;;;;;;18.49;41.99;100427.72;4152562;28;20699;-33
2022/09/21 22:06:35;;;;;;;2.50;2.30;;;;;;;18.52;42.13;100417.38;4153388;28;20268;-31
2022/09/21 22:08:38;;;;;;;3.47;2.23;;;;;;;18.57;42.14;100416.81;4148323;28;20679;-31
2022/09/21 22:10:48;;;;;;;6.43;2.70;;;;;;;18.04;42.67;100474.50;4153963;28;20239;-32
2022/09/21 22:12:56;;;;;;;2.87;2.37;;;;;;;17.74;43.13;100478.28;4146011;28;20231;-31
2022/09/21 22:15:05;;;;;;;2.60;2.40;;;;;;;18.28;42.50;100442.88;4156809;28;20319;-33
2022/09/21 22:17:07;;;;;;;5.53;2.40;;;;;;;18.50;42.24;100413.25;4153522;28;20302;-31
2022/09/21 22:19:08;;;;;;;4.70;2.50;;;;;;;17.78;42.91;100496.53;4153100;28;20308;-33
2022/09/21 22:21:23;;;;;;;3.60;2.20;;;;;;;17.88;43.28;100447.81;4151323;28;20279;-33
2022/09/21 22:23:24;;;;;;;3.83;2.50;;;;;;;17.54;43.43;100488.78;4152312;28;20331;-30
2022/09/21 22:25:27;;;;;;;2.53;2.27;;;;;;;18.14;42.95;100406.94;4155615;28;20243;-32
2022/09/21 22:27:34;;;;;;;3.00;2.70;;;;;;;16.72;44.76;100553.06;4155123;28;20768;-31
2022/09/21 22:29:36;;;;;;;2.73;1.93;;;;;;;17.33;44.16;100443.84;4152948;28;20259;-32
2022/09/21 22:31:41;;;;;;;4.33;2.40;;;;;;;17.96;42.62;100417.28;4153247;28;20263;-30
2022/09/21 22:33:49;;;;;;;2.63;2.43;;;;;;;18.09;42.48;100409.38;4154233;28;20276;-32
2022/09/21 22:35:50;;;;;;;2.40;2.20;;;;;;;17.87;42.67;100432.72;4153471;28;20248;-32
2022/09/21 22:37:53;;;;;;;2.70;2.50;;;;;;;17.81;42.49;100450.44;4156083;28;20259;-33
2022/09/21 22:40:02;;;;;;;2.57;2.37;;;;;;;17.45;42.81;100471.94;4150616;28;20912;-30
2022/09/21 22:42:04;;;;;;;2.47;2.27;;;;;;;17.39;43.24;100481.56;4154476;28;20328;-32
2022/09/21 22:44:06;;;;;;;2.50;2.20;;;;;;;17.57;42.97;100448.09;4156529;28;20328;-32
2022/09/21 22:46:17;;;;;;;2.30;2.10;;;;;;;17.71;42.39;100449.06;4155658;28;20303;-30
2022/09/21 22:48:19;;;;;;;2.47;2.27;;;;;;;17.69;42.46;100449.25;4155689;28;20236;-31
2022/09/21 22:50:20;;;;;;;2.90;2.70;;;;;;;17.60;42.51;100462.00;4150754;28;20299;-33
2022/09/21 22:52:29;;;;;;;3.07;2.70;;;;;;;17.23;43.08;100482.56;4151669;28;20768;-31
2022/09/21 22:54:30;;;;;;;2.87;2.57;;;;;;;17.19;43.44;100493.84;4150837;28;20324;-32
2022/09/21 22:56:32;;;;;;;3.80;3.00;;;;;;;16.97;43.77;100498.28;4149856;28;20260;-33
2022/09/21 22:58:43;;;;;;;2.73;2.40;;;;;;;17.05;43.81;100474.84;4150665;28;20267;-31
2022/09/21 23:00:45;;;;;;;3.37;2.63;;;;;;;17.42;42.86;100427.44;4154773;28;20716;-32
2022/09/21 23:02:52;;;;;;;3.70;2.53;;;;;;;17.12;43.33;100472.25;4154460;28;20635;-31
2022/09/21 23:05:01;;;;;;;3.20;2.80;;;;;;;17.10;43.36;100459.00;4153396;28;20270;-31
2022/09/21 23:07:03;;;;;;;4.63;2.47;;;;;;;17.06;43.37;100475.72;4153111;28;20251;-34
2022/09/21 23:09:15;;;;;;;3.13;2.73;;;;;;;17.20;42.97;100453.38;4155206;28;20591;-35
2022/09/21 23:11:22;;;;;;;5.33;2.70;;;;;;;17.03;43.57;100460.78;4153506;28;20570;-32
2022/09/21 23:13:24;;;;;;;3.10;2.80;;;;;;;17.10;42.85;100453.63;4148822;28;20257;-30
2022/09/21 23:15:32;;;;;;;3.77;2.60;;;;;;;16.87;43.29;100477.03;4154481;28;20248;-30
2022/09/21 23:17:34;;;;;;;3.63;2.70;;;;;;;16.76;43.59;100505.19;4154727;28;20334;-31
2022/09/21 23:19:36;;;;;;;5.40;2.77;;;;;;;16.63;44.04;100486.16;4154407;28;20239;-33
2022/09/21 23:21:48;;;;;;;3.03;2.77;;;;;;;16.81;43.50;100457.13;4152352;28;20319;-30
2022/09/21 23:23:54;;;;;;;3.00;2.73;;;;;;;16.60;43.81;100478.47;4152518;28;20297;-30
2022/09/21 23:26:05;;;;;;;5.37;2.80;;;;;;;16.85;43.76;100436.13;4156414;28;20311;-31
2022/09/21 23:28:12;;;;;;;3.20;2.53;;;;;;;16.84;43.63;100432.59;4158078;28;20248;-31
2022/09/21 23:30:14;;;;;;;3.07;2.60;;;;;;;16.57;43.98;100476.16;4156885;28;20581;-32
2022/09/21 23:32:16;;;;;;;3.83;3.03;;;;;;;16.55;43.98;100455.69;4158015;28;20303;-31
2022/09/21 23:34:24;;;;;;;6.30;2.90;;;;;;;16.39;44.58;100479.94;4155752;28;20272;-31
2022/09/21 23:36:27;;;;;;;3.93;3.20;;;;;;;16.52;44.17;100453.38;4158227;28;20274;-33
2022/09/21 23:38:30;;;;;;;4.07;2.60;;;;;;;16.46;44.12;100437.94;4155085;28;20228;-31
2022/09/21 23:40:38;;;;;;;4.67;3.03;;;;;;;15.91;44.98;100514.97;4155933;28;20854;-34
2022/09/21 23:42:39;;;;;;;3.23;2.90;;;;;;;16.42;44.32;100430.44;4157523;28;20233;-30
2022/09/21 23:44:41;;;;;;;3.60;3.00;;;;;;;16.74;43.54;100399.81;4154472;28;20710;-32
2022/09/21 23:46:49;;;;;;;3.43;3.13;;;;;;;16.85;43.29;100393.97;4155620;28;20477;-30
2022/09/21 23:48:51;;;;;;;4.13;3.30;;;;;;;16.23;44.21;100469.34;4156145;28;20229;-32
2022/09/21 23:50:54;;;;;;;3.20;2.90;;;;;;;16.68;43.78;100408.59;4156858;28;20232;-32
2022/09/21 23:53:03;;;;;;;3.40;3.00;;;;;;;16.54;44.00;100420.97;4151168;28;20220;-31
2022/09/21 23:55:04;;;;;;;3.40;3.00;;;;;;;16.33;44.37;100445.78;4156697;28;20228;-31
2022/09/21 23:57:06;;;;;;;4.23;3.30;;;;;;;16.17;44.67;100465.53;4151529;28;20235;-32
2022/09/21 23:59:15;;;;;;;3.57;3.03;;;;;;;16.24;44.55;100441.50;4157195;28;20228;-33
